Latest Coastal Weather Observations for Lake Macquarie - Cooranbong

IDN60701

Issued at 3:35 pm EST Saturday 19 April 2014 (issued every 10 minutes, with the page automatically refreshed every 10 minutes)

About coastal observations | Map of coastal stations | Coastal observations for NSW | Marine services | Other Formats
Station Details ID: 061412 Name: LAKE MACQUARIE AWS Lat: -33.09 Lon: 151.46 Height: 6.0 m
Data from the previous 72 hours. | See also: Recent months at Lake Macquarie - Cooranbong
Date/Time
EST
Temp

°C
Wind Pressure Rain
since 9am
mm
Weather Cloud Vis
km
Sea
Height
m
Swell
Dir
 
Speed
knots
Gust
knots
hPa Trend Height
m
Period
s
Dir
19/03:30pm 20.1 SE 6 9 1014.5 - 0.0 - - - - - - -
19/03:00pm 20.6 SE 5 9 1014.4 - 0.0 - - - - - - -
19/02:30pm 20.2 ESE 6 9 1014.5 - 0.0 - - - - - - -
19/02:00pm 21.7 SSE 3 6 1014.3 - 0.0 - - - - - - -
19/01:30pm 21.9 SE 4 8 1014.4 - 0.0 - - - - - - -
19/01:00pm 22.4 ESE 3 11 1014.5 - 0.0 - - - - - - -
19/12:30pm 21.7 S 2 3 1015.0 - 0.0 - - - - - - -
19/12:00pm 22.6 SSW 3 4 1015.4 - 0.0 - - - - - - -
19/11:30am 22.2 SW 2 5 1015.7 - 0.0 - - - - - - -
19/11:00am 21.5 W 3 6 1016.2 - 0.0 - - - - - - -
19/10:30am 21.7 NW 1 3 1016.6 - 0.0 - - - - - - -
19/10:00am 21.2 SW 2 4 1016.7 - 0.0 - - - - - - -
19/09:30am 20.2 SW 3 5 1016.8 - 0.0 - - - - - - -
19/09:00am 19.5 SW 2 4 1016.8 - 0.2 - - - - - - -
19/08:30am 18.4 NNW 0 3 1016.7 - 0.2 - - - - - - -
19/08:00am 14.4 CALM 0 3 1016.6 - 0.2 - - - - - - -
19/07:30am 11.9 CALM 0 0 1016.4 - 0.2 - - - - - - -
19/07:00am 10.3 CALM 0 0 1016.1 - 0.2 - - - - - - -
19/06:30am 9.7 CALM 0 0 1015.8 - 0.2 - - - - - - -
19/06:00am 9.8 CALM 0 0 1015.5 - 0.2 - - - - - - -
19/05:30am 10.1 CALM 0 0 1015.4 - 0.2 - - - - - - -
19/05:00am 10.1 CALM 0 0 1015.2 - 0.2 - - - - - - -
19/04:30am 10.1 CALM 0 0 1015.0 - 0.2 - - - - - - -
19/04:00am 10.4 CALM 0 0 1014.8 - 0.2 - - - - - - -
19/03:30am 10.5 CALM 0 0 1014.7 - 0.2 - - - - - - -
19/03:00am 10.9 CALM 0 0 1014.6 - 0.2 - - - - - - -
19/02:30am 10.9 CALM 0 0 1014.4 - 0.2 - - - - - - -
19/02:00am 11.3 CALM 0 0 1014.4 - 0.2 - - - - - - -
19/01:30am 11.5 CALM 0 0 1014.3 - 0.2 - - - - - - -
19/01:00am 11.6 CALM 0 0 1014.3 - 0.2 - - - - - - -
19/12:30am 11.6 CALM 0 0 1014.3 - 0.2 - - - - - - -
19/12:00am 12.2 N 1 2 1014.2 - 0.2 - - - - - - -
 
Date/Time
EST
Temp

°C
Wind Pressure Rain
since 9am
mm
Weather Cloud Vis
km
Sea
Height
m
Swell
Dir
 
Speed
knots
Gust
knots
hPa Trend Height
m
Period
s
Dir
18/11:30pm 12.6 N 1 3 1014.3 - 0.2 - - - - - - -
18/11:00pm 12.8 CALM 0 0 1014.8 - 0.2 - - - - - - -
18/10:30pm 12.8 N 1 2 1014.7 - 0.2 - - - - - - -
18/10:00pm 13.2 SE 1 2 1015.0 - 0.2 - - - - - - -
18/09:30pm 13.2 CALM 0 0 1014.9 - 0.2 - - - - - - -
18/09:00pm 13.3 CALM 0 0 1014.8 - 0.2 - - - - - - -
18/08:30pm 14.0 CALM 0 0 1014.6 - 0.2 - - - - - - -
18/08:00pm 14.5 CALM 0 0 1014.5 - 0.2 - - - - - - -
18/07:30pm 15.3 CALM 0 0 1014.2 - 0.2 - - - - - - -
18/07:00pm 15.7 CALM 0 1 1013.8 - 0.2 - - - - - - -
18/06:30pm 16.3 W 1 3 1013.3 - 0.2 - - - - - - -
18/06:00pm 17.2 CALM 0 0 1013.0 - 0.2 - - - - - - -
18/05:30pm 18.1 CALM 0 0 1012.6 - 0.2 - - - - - - -
18/05:00pm 21.2 CALM 0 0 1012.5 - 0.2 - - - - - - -
18/04:30pm 23.7 N 1 2 1012.3 - 0.2 - - - - - - -
18/04:00pm 25.6 CALM 0 2 1012.4 - 0.2 - - - - - - -
18/03:30pm 25.4 SW 1 2 1012.3 - 0.2 - - - - - - -
18/03:00pm 25.3 WSW 3 5 1012.4 - 0.2 - - - - - - -
18/02:30pm 25.1 SW 3 7 1012.6 - 0.2 - - - - - - -
18/02:00pm 24.6 SW 5 9 1012.8 - 0.2 - - - - - - -
18/01:30pm 25.1 NNW 4 9 1013.0 - 0.2 - - - - - - -
18/01:00pm 24.6 N 4 8 1013.3 - 0.2 - - - - - - -
18/12:30pm 24.3 NW 4 8 1013.8 - 0.2 - - - - - - -
18/12:00pm 23.9 NNW 4 7 1014.4 - 0.2 - - - - - - -
18/11:30am 23.6 NNW 4 8 1015.0 - 0.2 - - - - - - -
18/11:00am 22.8 NW 6 11 1015.5 - 0.2 - - - - - - -
18/10:30am 22.7 NNW 4 8 1015.8 - 0.0 - - - - - - -
18/10:00am 21.8 NNW 3 6 1016.1 - 0.0 - - - - - - -
18/09:30am 20.9 NNW 2 4 1016.5 - 0.0 - - - - - - -
18/09:00am 19.4 NNW 3 5 1016.8 - 0.0 - - - - - - -
18/08:30am 18.0 N 2 5 1017.1 - 0.0 - - - - - - -
18/08:00am 15.4 NNW 3 5 1017.1 - 0.0 - - - - - - -
18/07:30am 12.7 CALM 0 2 1017.2 - 0.0 - - - - - - -
18/07:00am 10.4 CALM 0 0 1017.0 - 0.0 - - - - - - -
18/06:30am 10.4 CALM 0 0 1017.0 - 0.0 - - - - - - -
18/06:00am 10.4 CALM 0 0 1016.9 - 0.0 - - - - - - -
18/05:30am 10.8 CALM 0 0 1016.9 - 0.0 - - - - - - -
18/05:00am 10.8 CALM 0 0 1017.1 - 0.0 - - - - - - -
18/04:30am 10.8 CALM 0 0 1017.2 - 0.0 - - - - - - -
18/04:00am 11.2 CALM 0 0 1017.1 - 0.0 - - - - - - -
18/03:30am 11.3 CALM 0 0 1017.0 - 0.0 - - - - - - -
18/03:00am 11.4 CALM 0 0 1017.2 - 0.0 - - - - - - -
18/02:30am 11.7 CALM 0 2 1017.3 - 0.0 - - - - - - -
18/02:00am 11.8 CALM 0 0 1017.6 - 0.0 - - - - - - -
18/01:30am 11.8 CALM 0 0 1017.9 - 0.0 - - - - - - -
18/01:00am 11.9 CALM 0 0 1018.1 - 0.0 - - - - - - -
18/12:30am 12.1 CALM 0 0 1018.3 - 0.0 - - - - - - -
18/12:00am 12.5 CALM 0 0 1018.5 - 0.0 - - - - - - -
 
Date/Time
EST
Temp

°C
Wind Pressure Rain
since 9am
mm
Weather Cloud Vis
km
Sea
Height
m
Swell
Dir
 
Speed
knots
Gust
knots
hPa Trend Height
m
Period
s
Dir
17/11:30pm 12.4 CALM 0 0 1018.7 - 0.0 - - - - - - -
17/11:00pm 13.0 CALM 0 0 1019.0 - 0.0 - - - - - - -
17/10:30pm 13.4 CALM 0 0 1019.1 - 0.0 - - - - - - -
17/10:00pm 13.7 CALM 0 0 1019.3 - 0.0 - - - - - - -
17/09:30pm 13.7 CALM 0 0 1019.4 - 0.0 - - - - - - -
17/09:00pm 14.0 CALM 0 0 1019.3 - 0.0 - - - - - - -
17/08:30pm 14.4 CALM 0 0 1019.3 - 0.0 - - - - - - -
17/08:00pm 14.6 CALM 0 0 1019.2 - 0.0 - - - - - - -
17/07:30pm 15.1 CALM 0 0 1019.1 - 0.0 - - - - - - -
17/07:00pm 15.6 CALM 0 1 1018.9 - 0.0 - - - - - - -
17/06:30pm 16.3 CALM 0 0 1018.8 - 0.0 - - - - - - -
17/06:00pm 17.3 CALM 0 0 1018.4 - 0.0 - - - - - - -
17/05:30pm 18.8 CALM 0 0 1018.1 - 0.0 - - - - - - -
17/05:00pm 20.0 SSE 2 6 1018.0 - 0.0 - - - - - - -
17/04:30pm 20.5 SE 4 8 1017.9 - 0.0 - - - - - - -
17/04:00pm 20.9 SE 5 10 1017.7 - 0.0 - - - - - - -
17/03:30pm 20.8 SSE 4 7 1017.6 - 0.0 - - - - - - -
17/03:00pm 20.6 SSE 6 12 1017.7 - 0.0 - - - - - - -
17/02:30pm 21.9 SE 6 11 1017.6 - 0.0 - - - - - - -
17/02:00pm 21.9 SSE 5 11 1017.6 - 0.0 - - - - - - -
17/01:30pm 22.5 S 3 8 1017.7 - 0.0 - - - - - - -
17/01:00pm 22.5 SSW 4 9 1018.0 - 0.0 - - - - - - -
17/12:30pm 22.3 S 4 10 1018.3 - 0.0 - - - - - - -
17/12:00pm 22.6 SSW 4 9 1018.8 - 0.0 - - - - - - -
17/11:30am 22.2 SW 4 7 1019.2 - 0.0 - - - - - - -
17/11:00am 21.3 SSW 5 11 1019.4 - 0.0 - - - - - - -
17/10:30am 21.0 WSW 5 12 1019.5 - 0.0 - - - - - - -
17/10:00am 20.3 WSW 6 9 1019.7 - 0.0 - - - - - - -
17/09:30am 19.7 WSW 6 9 1019.8 - 0.0 - - - - - - -
17/09:00am 19.3 WSW 4 7 1019.7 - 0.0 - - - - - - -
17/08:30am 18.3 WSW 5 10 1019.7 - 0.0 - - - - - - -
17/08:00am 16.0 WSW 2 4 1019.4 - 0.0 - - - - - - -
17/07:30am 12.7 CALM 0 0 1019.2 - 0.0 - - - - - - -
17/07:00am 10.8 CALM 0 0 1019.0 - 0.0 - - - - - - -
17/06:30am 10.9 CALM 0 0 1018.5 - 0.0 - - - - - - -
17/06:00am 10.9 CALM 0 0 1018.5 - 0.0 - - - - - - -
17/05:30am 10.9 CALM 0 0 1018.3 - 0.0 - - - - - - -
17/05:00am 10.6 CALM 0 0 1018.1 - 0.0 - - - - - - -
17/04:30am 11.2 CALM 0 0 1018.0 - 0.0 - - - - - - -
17/04:00am 11.4 CALM 0 0 1017.8 - 0.0 - - - - - - -
17/03:30am 11.6 CALM 0 2 1017.7 - 0.0 - - - - - - -
17/03:00am 11.7 WSW 2 4 1017.6 - 0.0 - - - - - - -
17/02:30am 11.8 WSW 1 3 1017.5 - 0.0 - - - - - - -
17/02:00am 11.9 CALM 0 3 1017.8 - 0.0 - - - - - - -
17/01:30am 11.9 CALM 0 1 1018.0 - 0.0 - - - - - - -
17/01:00am 11.9 CALM 0 0 1018.3 - 0.0 - - - - - - -
17/12:30am 12.0 CALM 0 0 1018.6 - 0.0 - - - - - - -
17/12:00am 12.4 CALM 0 0 1018.6 - 0.0 - - - - - - -
 
Date/Time
EST
Temp

°C
Wind Pressure Rain
since 9am
mm
Weather Cloud Vis
km
Sea
Height
m
Swell
Dir
 
Speed
knots
Gust
knots
hPa Trend Height
m
Period
s
Dir
16/11:30pm 12.7 CALM 0 0 1018.6 - 0.0 - - - - - - -
16/11:00pm 13.1 CALM 0 0 1018.7 - 0.0 - - - - - - -
16/10:30pm 13.4 CALM 0 0 1018.8 - 0.0 - - - - - - -
16/10:00pm 13.4 CALM 0 0 1019.1 - 0.0 - - - - - - -
16/09:30pm 14.1 CALM 0 0 1019.1 - 0.0 - - - - - - -
16/09:00pm 14.3 CALM 0 0 1019.1 - 0.0 - - - - - - -
16/08:30pm 14.6 CALM 0 0 1018.9 - 0.0 - - - - - - -
16/08:00pm 15.1 WNW 1 2 1018.7 - 0.0 - - - - - - -
16/07:30pm 15.0 CALM 0 0 1018.6 - 0.0 - - - - - - -
16/07:00pm 15.4 CALM 0 3 1018.4 - 0.0 - - - - - - -
16/06:30pm 15.8 CALM 0 0 1018.3 - 0.0 - - - - - - -
16/06:00pm 16.4 CALM 0 0 1018.0 - 0.0 - - - - - - -
16/05:30pm 18.6 CALM 0 0 1017.6 - 0.0 - - - - - - -
16/05:00pm 19.8 SSW 1 2 1017.4 - 0.0 - - - - - - -
16/04:30pm 20.6 SW 2 4 1017.4 - 0.0 - - - - - - -
16/04:00pm 20.2 SSW 3 8 1017.3 - 0.0 - - - - - - -

Other Formats:

Comma delimited format used in spreadsheet applications
http://www.bom.gov.au/fwo/IDN60701/IDN60701.95767.axf

JavaScript Object Notation format (JSON) in row-major order
http://www.bom.gov.au/fwo/IDN60701/IDN60701.95767.json